sensor_id;sensor_type;location;lat;lon;timestamp;temperature;humidity
64918;HTU21D;52176;44.858;38.372;2023-02-24T00:01:23;-7.40;79.37
64918;HTU21D;52176;44.858;38.372;2023-02-24T00:03:55;-7.41;79.39
64918;HTU21D;52176;44.858;38.372;2023-02-24T00:06:28;-7.44;79.36
64918;HTU21D;52176;44.858;38.372;2023-02-24T00:09:21;-7.42;79.28
64918;HTU21D;52176;44.858;38.372;2023-02-24T00:11:59;-7.45;79.33
64918;HTU21D;52176;44.858;38.372;2023-02-24T00:14:29;-7.45;79.24
64918;HTU21D;52176;44.858;38.372;2023-02-24T00:16:56;-7.44;79.24
64918;HTU21D;52176;44.858;38.372;2023-02-24T00:19:28;-7.46;79.20
64918;HTU21D;52176;44.858;38.372;2023-02-24T00:21:54;-7.48;79.17
64918;HTU21D;52176;44.858;38.372;2023-02-24T00:24:21;-7.51;79.16
64918;HTU21D;52176;44.858;38.372;2023-02-24T00:26:54;-7.52;79.19
64918;HTU21D;52176;44.858;38.372;2023-02-24T00:29:22;-7.57;79.16
64918;HTU21D;52176;44.858;38.372;2023-02-24T00:31:56;-7.62;79.23
64918;HTU21D;52176;44.858;38.372;2023-02-24T00:34:26;-7.66;79.29
64918;HTU21D;52176;44.858;38.372;2023-02-24T00:36:56;-7.69;79.32
64918;HTU21D;52176;44.858;38.372;2023-02-24T00:39:22;-7.74;79.30
64918;HTU21D;52176;44.858;38.372;2023-02-24T00:42:04;-7.78;79.32
64918;HTU21D;52176;44.858;38.372;2023-02-24T00:47:03;-7.81;79.40
64918;HTU21D;52176;44.858;38.372;2023-02-24T00:49:35;-7.79;79.38
64918;HTU21D;52176;44.858;38.372;2023-02-24T00:52:18;-7.77;79.37
64918;HTU21D;52176;44.858;38.372;2023-02-24T00:54:46;-7.78;79.33
64918;HTU21D;52176;44.858;38.372;2023-02-24T00:57:13;-7.76;79.34
64918;HTU21D;52176;44.858;38.372;2023-02-24T00:59:42;-7.76;79.37
64918;HTU21D;52176;44.858;38.372;2023-02-24T01:02:12;-7.75;79.30
64918;HTU21D;52176;44.858;38.372;2023-02-24T01:04:39;-7.76;79.30
64918;HTU21D;52176;44.858;38.372;2023-02-24T01:07:06;-7.72;79.28
64918;HTU21D;52176;44.858;38.372;2023-02-24T01:09:36;-7.72;79.27
64918;HTU21D;52176;44.858;38.372;2023-02-24T01:12:05;-7.72;79.20
64918;HTU21D;52176;44.858;38.372;2023-02-24T01:14:49;-7.76;79.21
64918;HTU21D;52176;44.858;38.372;2023-02-24T01:17:17;-7.76;79.21
64918;HTU21D;52176;44.858;38.372;2023-02-24T01:19:43;-7.76;79.24
64918;HTU21D;52176;44.858;38.372;2023-02-24T01:22:12;-7.75;79.23
64918;HTU21D;52176;44.858;38.372;2023-02-24T01:24:41;-7.75;79.24
64918;HTU21D;52176;44.858;38.372;2023-02-24T01:27:09;-7.74;79.23
64918;HTU21D;52176;44.858;38.372;2023-02-24T01:29:36;-7.72;79.24
64918;HTU21D;52176;44.858;38.372;2023-02-24T01:32:05;-7.70;79.30
64918;HTU21D;52176;44.858;38.372;2023-02-24T01:34:31;-7.68;79.27
64918;HTU21D;52176;44.858;38.372;2023-02-24T01:37:00;-7.66;79.24
64918;HTU21D;52176;44.858;38.372;2023-02-24T01:39:26;-7.63;79.36
64918;HTU21D;52176;44.858;38.372;2023-02-24T01:41:53;-7.59;79.36
64918;HTU21D;52176;44.858;38.372;2023-02-24T01:46:51;-7.53;79.34
64918;HTU21D;52176;44.858;38.372;2023-02-24T01:49:23;-7.51;79.24
64918;HTU21D;52176;44.858;38.372;2023-02-24T01:51:55;-7.50;79.25
64918;HTU21D;52176;44.858;38.372;2023-02-24T01:55:15;-7.51;79.36
64918;HTU21D;52176;44.858;38.372;2023-02-24T01:57:24;-7.50;79.31
64918;HTU21D;52176;44.858;38.372;2023-02-24T01:59:52;-7.49;79.27
64918;HTU21D;52176;44.858;38.372;2023-02-24T02:02:21;-7.51;79.24
64918;HTU21D;52176;44.858;38.372;2023-02-24T02:05:04;-7.52;79.22
64918;HTU21D;52176;44.858;38.372;2023-02-24T02:07:30;-7.53;79.21
64918;HTU21D;52176;44.858;38.372;2023-02-24T02:09:58;-7.51;79.27
64918;HTU21D;52176;44.858;38.372;2023-02-24T02:12:29;-7.53;79.22
64918;HTU21D;52176;44.858;38.372;2023-02-24T02:15:00;-7.53;79.21
64918;HTU21D;52176;44.858;38.372;2023-02-24T02:23:32;-7.57;79.32
64918;HTU21D;52176;44.858;38.372;2023-02-24T02:29:42;-7.63;79.37
64918;HTU21D;52176;44.858;38.372;2023-02-24T02:42:58;-7.63;79.44
64918;HTU21D;52176;44.858;38.372;2023-02-24T02:45:35;-7.62;79.41
64918;HTU21D;52176;44.858;38.372;2023-02-24T02:48:12;-7.62;79.38
64918;HTU21D;52176;44.858;38.372;2023-02-24T02:50:50;-7.63;79.39
64918;HTU21D;52176;44.858;38.372;2023-02-24T02:53:24;-7.62;79.49
64918;HTU21D;52176;44.858;38.372;2023-02-24T02:56:05;-7.64;79.46
64918;HTU21D;52176;44.858;38.372;2023-02-24T02:58:38;-7.65;79.46
64918;HTU21D;52176;44.858;38.372;2023-02-24T03:01:05;-7.66;79.45
64918;HTU21D;52176;44.858;38.372;2023-02-24T03:03:41;-7.63;79.49
64918;HTU21D;52176;44.858;38.372;2023-02-24T03:06:26;-7.60;79.51
64918;HTU21D;52176;44.858;38.372;2023-02-24T03:09:01;-7.60;79.52
64918;HTU21D;52176;44.858;38.372;2023-02-24T03:12:14;-7.61;79.49
64918;HTU21D;52176;44.858;38.372;2023-02-24T03:14:39;-7.62;79.46
64918;HTU21D;52176;44.858;38.372;2023-02-24T03:17:14;-7.60;79.48
64918;HTU21D;52176;44.858;38.372;2023-02-24T03:19:43;-7.60;79.49
64918;HTU21D;52176;44.858;38.372;2023-02-24T03:22:21;-7.60;79.46
64918;HTU21D;52176;44.858;38.372;2023-02-24T03:24:51;-7.57;79.46
64918;HTU21D;52176;44.858;38.372;2023-02-24T03:27:29;-7.56;79.45
64918;HTU21D;52176;44.858;38.372;2023-02-24T03:30:00;-7.54;79.46
64918;HTU21D;52176;44.858;38.372;2023-02-24T03:35:21;-7.52;79.46
64918;HTU21D;52176;44.858;38.372;2023-02-24T03:37:49;-7.50;79.43
64918;HTU21D;52176;44.858;38.372;2023-02-24T03:40:16;-7.49;79.43
64918;HTU21D;52176;44.858;38.372;2023-02-24T03:42:50;-7.47;79.41
64918;HTU21D;52176;44.858;38.372;2023-02-24T03:45:17;-7.46;79.45
64918;HTU21D;52176;44.858;38.372;2023-02-24T03:47:46;-7.44;79.49
64918;HTU21D;52176;44.858;38.372;2023-02-24T03:50:17;-7.40;79.48
64918;HTU21D;52176;44.858;38.372;2023-02-24T03:55:51;-7.34;79.41
64918;HTU21D;52176;44.858;38.372;2023-02-24T04:01:20;-7.36;79.45
64918;HTU21D;52176;44.858;38.372;2023-02-24T04:07:54;-7.37;79.46
64918;HTU21D;52176;44.858;38.372;2023-02-24T04:13:18;-7.41;79.53
64918;HTU21D;52176;44.858;38.372;2023-02-24T04:15:56;-7.40;79.60
64918;HTU21D;52176;44.858;38.372;2023-02-24T04:18:33;-7.38;79.60
64918;HTU21D;52176;44.858;38.372;2023-02-24T04:21:02;-7.34;79.59
64918;HTU21D;52176;44.858;38.372;2023-02-24T04:23:32;-7.31;79.53
64918;HTU21D;52176;44.858;38.372;2023-02-24T04:26:04;-7.26;79.56
64918;HTU21D;52176;44.858;38.372;2023-02-24T04:28:31;-7.24;79.53
64918;HTU21D;52176;44.858;38.372;2023-02-24T04:31:03;-7.19;79.54
64918;HTU21D;52176;44.858;38.372;2023-02-24T04:33:33;-7.13;79.52
64918;HTU21D;52176;44.858;38.372;2023-02-24T04:35:59;-7.07;79.53
64918;HTU21D;52176;44.858;38.372;2023-02-24T04:38:26;-7.02;79.45
64918;HTU21D;52176;44.858;38.372;2023-02-24T04:40:52;-6.95;79.40
64918;HTU21D;52176;44.858;38.372;2023-02-24T04:43:19;-6.89;79.38
64918;HTU21D;52176;44.858;38.372;2023-02-24T04:45:45;-6.81;79.34
64918;HTU21D;52176;44.858;38.372;2023-02-24T04:48:11;-6.77;79.30
64918;HTU21D;52176;44.858;38.372;2023-02-24T04:50:39;-6.73;79.23
64918;HTU21D;52176;44.858;38.372;2023-02-24T04:53:14;-6.68;79.25
64918;HTU21D;52176;44.858;38.372;2023-02-24T04:55:42;-6.64;79.27
64918;HTU21D;52176;44.858;38.372;2023-02-24T04:58:12;-6.57;79.30
64918;HTU21D;52176;44.858;38.372;2023-02-24T05:00:39;-6.49;79.25
64918;HTU21D;52176;44.858;38.372;2023-02-24T05:03:09;-6.42;79.26
64918;HTU21D;52176;44.858;38.372;2023-02-24T05:05:36;-6.31;79.22
64918;HTU21D;52176;44.858;38.372;2023-02-24T05:08:07;-6.21;79.13
64918;HTU21D;52176;44.858;38.372;2023-02-24T05:13:01;-6.02;79.04
64918;HTU21D;52176;44.858;38.372;2023-02-24T05:15:28;-5.91;79.01
64918;HTU21D;52176;44.858;38.372;2023-02-24T05:17:59;-5.81;78.99
64918;HTU21D;52176;44.858;38.372;2023-02-24T05:20:26;-5.68;78.92
64918;HTU21D;52176;44.858;38.372;2023-02-24T05:23:11;-5.53;78.88
64918;HTU21D;52176;44.858;38.372;2023-02-24T05:25:37;-5.41;78.80
64918;HTU21D;52176;44.858;38.372;2023-02-24T05:28:04;-5.28;78.75
64918;HTU21D;52176;44.858;38.372;2023-02-24T05:30:31;-5.17;78.70
64918;HTU21D;52176;44.858;38.372;2023-02-24T05:32:57;-5.04;78.66
64918;HTU21D;52176;44.858;38.372;2023-02-24T05:35:24;-4.93;78.66
64918;HTU21D;52176;44.858;38.372;2023-02-24T05:37:51;-4.81;78.61
64918;HTU21D;52176;44.858;38.372;2023-02-24T05:40:17;-4.70;78.62
64918;HTU21D;52176;44.858;38.372;2023-02-24T05:42:48;-4.55;78.59
64918;HTU21D;52176;44.858;38.372;2023-02-24T05:45:14;-4.40;78.56
64918;HTU21D;52176;44.858;38.372;2023-02-24T05:47:40;-4.24;78.53
64918;HTU21D;52176;44.858;38.372;2023-02-24T05:50:11;-4.08;78.47
64918;HTU21D;52176;44.858;38.372;2023-02-24T05:52:37;-3.90;78.41
64918;HTU21D;52176;44.858;38.372;2023-02-24T05:55:04;-3.72;78.37
64918;HTU21D;52176;44.858;38.372;2023-02-24T05:57:32;-3.57;78.35
64918;HTU21D;52176;44.858;38.372;2023-02-24T06:00:00;-3.45;78.43
64918;HTU21D;52176;44.858;38.372;2023-02-24T06:02:38;-3.28;78.49
64918;HTU21D;52176;44.858;38.372;2023-02-24T06:05:05;-3.15;78.47
64918;HTU21D;52176;44.858;38.372;2023-02-24T06:07:33;-3.00;78.72
64918;HTU21D;52176;44.858;38.372;2023-02-24T06:10:00;-2.89;78.79
64918;HTU21D;52176;44.858;38.372;2023-02-24T06:12:31;-2.78;79.13
64918;HTU21D;52176;44.858;38.372;2023-02-24T06:15:04;-2.69;79.11
64918;HTU21D;52176;44.858;38.372;2023-02-24T06:17:32;-2.58;79.10
64918;HTU21D;52176;44.858;38.372;2023-02-24T06:19:58;-2.41;79.30
64918;HTU21D;52176;44.858;38.372;2023-02-24T06:22:25;-2.26;79.12
64918;HTU21D;52176;44.858;38.372;2023-02-24T06:24:52;-2.16;79.09
64918;HTU21D;52176;44.858;38.372;2023-02-24T06:27:20;-2.05;78.97
64918;HTU21D;52176;44.858;38.372;2023-02-24T06:29:48;-1.95;79.00
64918;HTU21D;52176;44.858;38.372;2023-02-24T06:32:18;-1.88;79.00
64918;HTU21D;52176;44.858;38.372;2023-02-24T06:34:45;-1.78;78.92
64918;HTU21D;52176;44.858;38.372;2023-02-24T06:37:13;-1.69;78.84
64918;HTU21D;52176;44.858;38.372;2023-02-24T06:39:39;-1.62;78.77
64918;HTU21D;52176;44.858;38.372;2023-02-24T06:42:06;-1.55;78.68
64918;HTU21D;52176;44.858;38.372;2023-02-24T06:44:37;-1.46;78.77
64918;HTU21D;52176;44.858;38.372;2023-02-24T06:47:06;-1.23;78.86
64918;HTU21D;52176;44.858;38.372;2023-02-24T06:49:32;-1.04;78.61
64918;HTU21D;52176;44.858;38.372;2023-02-24T06:51:59;-0.91;78.56
64918;HTU21D;52176;44.858;38.372;2023-02-24T06:54:26;-0.77;78.50
64918;HTU21D;52176;44.858;38.372;2023-02-24T06:56:57;-0.70;78.11
64918;HTU21D;52176;44.858;38.372;2023-02-24T06:59:24;-0.60;77.99
64918;HTU21D;52176;44.858;38.372;2023-02-24T07:01:54;-0.53;77.91
64918;HTU21D;52176;44.858;38.372;2023-02-24T07:04:20;-0.46;76.87
64918;HTU21D;52176;44.858;38.372;2023-02-24T07:06:51;-0.36;77.16
64918;HTU21D;52176;44.858;38.372;2023-02-24T07:09:22;-0.28;77.36
64918;HTU21D;52176;44.858;38.372;2023-02-24T07:11:51;-0.21;77.31
64918;HTU21D;52176;44.858;38.372;2023-02-24T07:14:22;-0.14;76.12
64918;HTU21D;52176;44.858;38.372;2023-02-24T07:16:49;-0.10;76.09
64918;HTU21D;52176;44.858;38.372;2023-02-24T07:19:23;-0.03;76.67
64918;HTU21D;52176;44.858;38.372;2023-02-24T07:21:50;0.14;76.55
64918;HTU21D;52176;44.858;38.372;2023-02-24T07:24:20;0.51;76.78
64918;HTU21D;52176;44.858;38.372;2023-02-24T07:27:05;0.91;76.35
64918;HTU21D;52176;44.858;38.372;2023-02-24T07:29:32;1.21;76.08
64918;HTU21D;52176;44.858;38.372;2023-02-24T07:32:00;1.56;75.55
64918;HTU21D;52176;44.858;38.372;2023-02-24T07:34:28;1.85;75.54
64918;HTU21D;52176;44.858;38.372;2023-02-24T07:36:55;2.30;75.47
64918;HTU21D;52176;44.858;38.372;2023-02-24T07:39:22;2.73;74.84
64918;HTU21D;52176;44.858;38.372;2023-02-24T07:41:49;3.16;72.94
64918;HTU21D;52176;44.858;38.372;2023-02-24T07:44:18;3.61;72.95
64918;HTU21D;52176;44.858;38.372;2023-02-24T07:46:45;4.13;71.98
64918;HTU21D;52176;44.858;38.372;2023-02-24T07:49:14;4.58;70.79
64918;HTU21D;52176;44.858;38.372;2023-02-24T07:51:41;5.04;70.86
64918;HTU21D;52176;44.858;38.372;2023-02-24T07:54:09;5.50;71.03
64918;HTU21D;52176;44.858;38.372;2023-02-24T07:56:36;5.75;69.29
64918;HTU21D;52176;44.858;38.372;2023-02-24T07:59:11;5.82;70.07
64918;HTU21D;52176;44.858;38.372;2023-02-24T08:01:40;6.31;70.40
64918;HTU21D;52176;44.858;38.372;2023-02-24T08:04:18;6.72;68.38
64918;HTU21D;52176;44.858;38.372;2023-02-24T08:06:44;6.69;67.86
64918;HTU21D;52176;44.858;38.372;2023-02-24T08:09:11;6.57;68.28
64918;HTU21D;52176;44.858;38.372;2023-02-24T08:11:48;6.39;68.27
64918;HTU21D;52176;44.858;38.372;2023-02-24T08:16:47;5.99;68.30
64918;HTU21D;52176;44.858;38.372;2023-02-24T08:19:16;5.79;68.55
64918;HTU21D;52176;44.858;38.372;2023-02-24T08:21:51;5.68;68.36
64918;HTU21D;52176;44.858;38.372;2023-02-24T08:24:20;5.80;68.71
64918;HTU21D;52176;44.858;38.372;2023-02-24T08:26:49;6.26;67.39
64918;HTU21D;52176;44.858;38.372;2023-02-24T08:29:35;6.72;66.66
64918;HTU21D;52176;44.858;38.372;2023-02-24T08:32:19;6.89;64.39
64918;HTU21D;52176;44.858;38.372;2023-02-24T08:34:48;7.03;65.39
64918;HTU21D;52176;44.858;38.372;2023-02-24T08:37:15;7.25;63.71
64918;HTU21D;52176;44.858;38.372;2023-02-24T08:39:42;7.56;64.50
64918;HTU21D;52176;44.858;38.372;2023-02-24T08:42:09;7.94;64.14
64918;HTU21D;52176;44.858;38.372;2023-02-24T08:44:39;8.44;63.59
64918;HTU21D;52176;44.858;38.372;2023-02-24T08:47:05;8.64;62.95
64918;HTU21D;52176;44.858;38.372;2023-02-24T08:49:34;8.76;62.96
64918;HTU21D;52176;44.858;38.372;2023-02-24T08:52:00;8.91;62.95
64918;HTU21D;52176;44.858;38.372;2023-02-24T08:54:27;9.03;61.85
64918;HTU21D;52176;44.858;38.372;2023-02-24T08:56:58;9.31;62.42
64918;HTU21D;52176;44.858;38.372;2023-02-24T08:59:33;9.77;61.79
64918;HTU21D;52176;44.858;38.372;2023-02-24T09:02:18;10.12;61.48
64918;HTU21D;52176;44.858;38.372;2023-02-24T09:04:57;10.23;58.58
64918;HTU21D;52176;44.858;38.372;2023-02-24T09:07:28;10.06;60.69
64918;HTU21D;52176;44.858;38.372;2023-02-24T09:09:54;9.98;59.83
64918;HTU21D;52176;44.858;38.372;2023-02-24T09:12:24;10.01;60.55
64918;HTU21D;52176;44.858;38.372;2023-02-24T09:14:52;10.21;59.83
64918;HTU21D;52176;44.858;38.372;2023-02-24T09:17:21;10.31;59.68
64918;HTU21D;52176;44.858;38.372;2023-02-24T09:20:05;10.36;59.45
64918;HTU21D;52176;44.858;38.372;2023-02-24T09:23:00;10.45;59.38
64918;HTU21D;52176;44.858;38.372;2023-02-24T09:25:32;10.70;59.28
64918;HTU21D;52176;44.858;38.372;2023-02-24T09:28:17;11.01;58.00
64918;HTU21D;52176;44.858;38.372;2023-02-24T09:33:22;11.49;58.93
64918;HTU21D;52176;44.858;38.372;2023-02-24T09:38:15;11.56;57.03
64918;HTU21D;52176;44.858;38.372;2023-02-24T09:40:45;11.71;57.88
64918;HTU21D;52176;44.858;38.372;2023-02-24T09:43:21;12.06;57.48
64918;HTU21D;52176;44.858;38.372;2023-02-24T09:45:53;12.43;57.22
64918;HTU21D;52176;44.858;38.372;2023-02-24T09:48:29;12.72;56.63
64918;HTU21D;52176;44.858;38.372;2023-02-24T09:50:56;12.87;56.16
64918;HTU21D;52176;44.858;38.372;2023-02-24T09:53:35;13.10;56.03
64918;HTU21D;52176;44.858;38.372;2023-02-24T10:03:49;13.88;54.61
64918;HTU21D;52176;44.858;38.372;2023-02-24T10:06:21;14.04;54.31
64918;HTU21D;52176;44.858;38.372;2023-02-24T10:08:55;14.06;53.81
64918;HTU21D;52176;44.858;38.372;2023-02-24T10:11:23;14.10;53.78
64918;HTU21D;52176;44.858;38.372;2023-02-24T10:14:01;14.17;53.94
64918;HTU21D;52176;44.858;38.372;2023-02-24T10:16:30;14.14;54.59
64918;HTU21D;52176;44.858;38.372;2023-02-24T10:19:27;14.23;54.12
64918;HTU21D;52176;44.858;38.372;2023-02-24T10:32:44;14.32;53.25
64918;HTU21D;52176;44.858;38.372;2023-02-24T10:35:12;14.28;52.59
64918;HTU21D;52176;44.858;38.372;2023-02-24T10:37:38;14.19;52.38
64918;HTU21D;52176;44.858;38.372;2023-02-24T10:40:05;14.10;52.55
64918;HTU21D;52176;44.858;38.372;2023-02-24T10:42:34;14.14;52.85
64918;HTU21D;52176;44.858;38.372;2023-02-24T10:47:58;14.23;52.50
64918;HTU21D;52176;44.858;38.372;2023-02-24T10:50:28;14.15;52.30
64918;HTU21D;52176;44.858;38.372;2023-02-24T10:53:06;14.19;52.33
64918;HTU21D;52176;44.858;38.372;2023-02-24T10:55:37;14.21;52.20
64918;HTU21D;52176;44.858;38.372;2023-02-24T11:00:53;13.94;50.66
64918;HTU21D;52176;44.858;38.372;2023-02-24T11:03:37;13.68;51.34
64918;HTU21D;52176;44.858;38.372;2023-02-24T11:06:16;13.59;52.07
64918;HTU21D;52176;44.858;38.372;2023-02-24T11:08:55;13.56;52.07
64918;HTU21D;52176;44.858;38.372;2023-02-24T11:11:33;13.55;51.85
64918;HTU21D;52176;44.858;38.372;2023-02-24T11:14:19;13.59;52.40
64918;HTU21D;52176;44.858;38.372;2023-02-24T11:17:03;13.63;51.21
64918;HTU21D;52176;44.858;38.372;2023-02-24T11:19:42;13.48;51.50
64918;HTU21D;52176;44.858;38.372;2023-02-24T11:22:22;13.39;52.00
64918;HTU21D;52176;44.858;38.372;2023-02-24T11:24:49;13.26;51.95
64918;HTU21D;52176;44.858;38.372;2023-02-24T11:27:20;13.22;52.46
64918;HTU21D;52176;44.858;38.372;2023-02-24T11:29:53;13.17;51.92
64918;HTU21D;52176;44.858;38.372;2023-02-24T11:32:28;13.12;52.49
64918;HTU21D;52176;44.858;38.372;2023-02-24T11:35:02;13.17;52.63
64918;HTU21D;52176;44.858;38.372;2023-02-24T11:37:46;13.15;52.64
64918;HTU21D;52176;44.858;38.372;2023-02-24T11:42:54;13.10;52.76
64918;HTU21D;52176;44.858;38.372;2023-02-24T11:47:54;12.87;51.33
64918;HTU21D;52176;44.858;38.372;2023-02-24T11:52:50;12.62;51.37
64918;HTU21D;52176;44.858;38.372;2023-02-24T11:55:30;12.48;51.25
64918;HTU21D;52176;44.858;38.372;2023-02-24T11:58:06;12.30;51.33
64918;HTU21D;52176;44.858;38.372;2023-02-24T12:00:35;12.15;51.43
64918;HTU21D;52176;44.858;38.372;2023-02-24T12:05:33;11.88;51.85
64918;HTU21D;52176;44.858;38.372;2023-02-24T12:08:13;11.82;52.11
64918;HTU21D;52176;44.858;38.372;2023-02-24T12:10:50;11.74;51.46
64918;HTU21D;52176;44.858;38.372;2023-02-24T12:13:20;11.56;50.66
64918;HTU21D;52176;44.858;38.372;2023-02-24T12:15:56;11.33;51.55
64918;HTU21D;52176;44.858;38.372;2023-02-24T12:18:33;11.22;51.83
64918;HTU21D;52176;44.858;38.372;2023-02-24T12:21:04;11.10;52.02
64918;HTU21D;52176;44.858;38.372;2023-02-24T12:23:34;10.96;52.24
64918;HTU21D;52176;44.858;38.372;2023-02-24T12:34:06;10.49;53.46
64918;HTU21D;52176;44.858;38.372;2023-02-24T12:39:28;10.26;53.53
64918;HTU21D;52176;44.858;38.372;2023-02-24T12:47:12;9.97;54.02
64918;HTU21D;52176;44.858;38.372;2023-02-24T12:59:27;9.33;54.10
64918;HTU21D;52176;44.858;38.372;2023-02-24T13:12:06;8.81;55.21
64918;HTU21D;52176;44.858;38.372;2023-02-24T13:14:37;8.75;55.65
64918;HTU21D;52176;44.858;38.372;2023-02-24T13:17:14;8.68;55.55
64918;HTU21D;52176;44.858;38.372;2023-02-24T13:19:42;8.59;55.81
64918;HTU21D;52176;44.858;38.372;2023-02-24T13:24:42;8.41;56.07
64918;HTU21D;52176;44.858;38.372;2023-02-24T13:29:43;8.23;56.41
64918;HTU21D;52176;44.858;38.372;2023-02-24T13:34:51;8.07;56.39
64918;HTU21D;52176;44.858;38.372;2023-02-24T13:37:28;7.99;56.29
64918;HTU21D;52176;44.858;38.372;2023-02-24T13:39:54;7.91;56.73
64918;HTU21D;52176;44.858;38.372;2023-02-24T13:42:21;7.79;56.74
64918;HTU21D;52176;44.858;38.372;2023-02-24T13:47:38;7.62;57.37
64918;HTU21D;52176;44.858;38.372;2023-02-24T13:50:16;7.58;57.55
64918;HTU21D;52176;44.858;38.372;2023-02-24T13:52:50;7.50;57.75
64918;HTU21D;52176;44.858;38.372;2023-02-24T13:57:50;7.34;58.06
64918;HTU21D;52176;44.858;38.372;2023-02-24T14:02:48;7.16;58.09
64918;HTU21D;52176;44.858;38.372;2023-02-24T14:07:46;7.00;58.35
64918;HTU21D;52176;44.858;38.372;2023-02-24T14:10:16;6.88;58.40
64918;HTU21D;52176;44.858;38.372;2023-02-24T14:12:43;6.80;58.49
64918;HTU21D;52176;44.858;38.372;2023-02-24T14:15:21;6.67;58.66
64918;HTU21D;52176;44.858;38.372;2023-02-24T14:17:57;6.56;58.85
64918;HTU21D;52176;44.858;38.372;2023-02-24T14:20:24;6.43;59.03
64918;HTU21D;52176;44.858;38.372;2023-02-24T14:22:53;6.33;59.14
64918;HTU21D;52176;44.858;38.372;2023-02-24T14:25:28;6.23;59.28
64918;HTU21D;52176;44.858;38.372;2023-02-24T14:27:55;6.12;59.35
64918;HTU21D;52176;44.858;38.372;2023-02-24T14:30:33;6.05;59.45
64918;HTU21D;52176;44.858;38.372;2023-02-24T14:33:00;5.98;59.51
64918;HTU21D;52176;44.858;38.372;2023-02-24T14:35:38;5.90;59.57
64918;HTU21D;52176;44.858;38.372;2023-02-24T14:38:16;5.82;59.66
64918;HTU21D;52176;44.858;38.372;2023-02-24T14:40:51;5.72;59.84
64918;HTU21D;52176;44.858;38.372;2023-02-24T14:43:17;5.64;59.98
64918;HTU21D;52176;44.858;38.372;2023-02-24T14:45:47;5.50;60.18
64918;HTU21D;52176;44.858;38.372;2023-02-24T14:48:40;5.37;60.44
64918;HTU21D;52176;44.858;38.372;2023-02-24T14:54:02;5.11;60.83
64918;HTU21D;52176;44.858;38.372;2023-02-24T14:56:31;4.97;60.96
64918;HTU21D;52176;44.858;38.372;2023-02-24T14:59:34;4.84;61.24
64918;HTU21D;52176;44.858;38.372;2023-02-24T15:02:03;4.69;61.35
64918;HTU21D;52176;44.858;38.372;2023-02-24T15:04:34;4.57;61.57
64918;HTU21D;52176;44.858;38.372;2023-02-24T15:07:04;4.44;61.79
64918;HTU21D;52176;44.858;38.372;2023-02-24T15:09:39;4.32;61.98
64918;HTU21D;52176;44.858;38.372;2023-02-24T15:17:43;3.94;62.46
64918;HTU21D;52176;44.858;38.372;2023-02-24T15:22:53;3.74;62.80
64918;HTU21D;52176;44.858;38.372;2023-02-24T15:25:22;3.65;62.95
64918;HTU21D;52176;44.858;38.372;2023-02-24T15:30:34;3.50;64.82
64918;HTU21D;52176;44.858;38.372;2023-02-24T15:33:04;3.58;64.11
64918;HTU21D;52176;44.858;38.372;2023-02-24T15:35:31;3.56;63.89
64918;HTU21D;52176;44.858;38.372;2023-02-24T15:38:02;3.49;63.79
64918;HTU21D;52176;44.858;38.372;2023-02-24T15:40:28;3.40;63.78
64918;HTU21D;52176;44.858;38.372;2023-02-24T15:42:58;3.30;63.82
64918;HTU21D;52176;44.858;38.372;2023-02-24T15:45:32;3.20;63.91
64918;HTU21D;52176;44.858;38.372;2023-02-24T15:47:59;3.11;64.01
64918;HTU21D;52176;44.858;38.372;2023-02-24T15:50:26;2.99;64.09
64918;HTU21D;52176;44.858;38.372;2023-02-24T15:52:54;2.88;64.22
64918;HTU21D;52176;44.858;38.372;2023-02-24T15:55:26;2.73;64.37
64918;HTU21D;52176;44.858;38.372;2023-02-24T15:57:59;2.60;64.53
64918;HTU21D;52176;44.858;38.372;2023-02-24T16:00:26;2.46;64.69
64918;HTU21D;52176;44.858;38.372;2023-02-24T16:02:52;2.34;64.85
64918;HTU21D;52176;44.858;38.372;2023-02-24T16:05:18;2.26;65.00
64918;HTU21D;52176;44.858;38.372;2023-02-24T16:07:45;2.20;65.08
64918;HTU21D;52176;44.858;38.372;2023-02-24T16:10:24;2.11;65.19
64918;HTU21D;52176;44.858;38.372;2023-02-24T16:12:57;2.00;65.27
64918;HTU21D;52176;44.858;38.372;2023-02-24T16:15:30;1.93;65.43
64918;HTU21D;52176;44.858;38.372;2023-02-24T16:17:58;1.86;65.49
64918;HTU21D;52176;44.858;38.372;2023-02-24T16:20:27;1.79;65.53
64918;HTU21D;52176;44.858;38.372;2023-02-24T16:23:01;1.69;65.64
64918;HTU21D;52176;44.858;38.372;2023-02-24T16:25:32;1.61;65.74
64918;HTU21D;52176;44.858;38.372;2023-02-24T16:28:00;1.55;65.88
64918;HTU21D;52176;44.858;38.372;2023-02-24T16:30:27;1.49;65.92
64918;HTU21D;52176;44.858;38.372;2023-02-24T16:32:56;1.43;66.07
64918;HTU21D;52176;44.858;38.372;2023-02-24T16:35:23;1.42;66.12
64918;HTU21D;52176;44.858;38.372;2023-02-24T16:37:50;1.37;66.15
64918;HTU21D;52176;44.858;38.372;2023-02-24T16:40:28;1.25;66.24
64918;HTU21D;52176;44.858;38.372;2023-02-24T16:42:58;1.18;66.33
64918;HTU21D;52176;44.858;38.372;2023-02-24T16:45:27;1.12;66.52
64918;HTU21D;52176;44.858;38.372;2023-02-24T16:47:56;1.07;66.60
64918;HTU21D;52176;44.858;38.372;2023-02-24T16:50:27;1.05;66.73
64918;HTU21D;52176;44.858;38.372;2023-02-24T16:52:55;0.99;66.81
64918;HTU21D;52176;44.858;38.372;2023-02-24T16:55:21;0.96;66.85
64918;HTU21D;52176;44.858;38.372;2023-02-24T16:57:47;0.93;66.89
64918;HTU21D;52176;44.858;38.372;2023-02-24T17:00:15;0.88;67.01
64918;HTU21D;52176;44.858;38.372;2023-02-24T17:02:43;0.82;67.10
64918;HTU21D;52176;44.858;38.372;2023-02-24T17:05:18;0.77;67.21
64918;HTU21D;52176;44.858;38.372;2023-02-24T17:07:49;0.68;67.30
64918;HTU21D;52176;44.858;38.372;2023-02-24T17:10:16;0.59;67.38
64918;HTU21D;52176;44.858;38.372;2023-02-24T17:12:42;0.52;67.52
64918;HTU21D;52176;44.858;38.372;2023-02-24T17:15:13;0.46;67.68
64918;HTU21D;52176;44.858;38.372;2023-02-24T17:17:40;0.40;67.73
64918;HTU21D;52176;44.858;38.372;2023-02-24T17:20:06;0.34;67.88
64918;HTU21D;52176;44.858;38.372;2023-02-24T17:22:32;0.31;67.97
64918;HTU21D;52176;44.858;38.372;2023-02-24T17:24:58;0.29;68.13
64918;HTU21D;52176;44.858;38.372;2023-02-24T17:27:24;0.29;68.14
64918;HTU21D;52176;44.858;38.372;2023-02-24T17:29:50;0.27;68.18
64918;HTU21D;52176;44.858;38.372;2023-02-24T17:32:16;0.23;68.39
64918;HTU21D;52176;44.858;38.372;2023-02-24T17:34:42;0.23;68.39
64918;HTU21D;52176;44.858;38.372;2023-02-24T17:37:08;0.19;68.39
64918;HTU21D;52176;44.858;38.372;2023-02-24T17:39:35;0.16;68.48
64918;HTU21D;52176;44.858;38.372;2023-02-24T17:42:01;0.13;68.52
64918;HTU21D;52176;44.858;38.372;2023-02-24T17:44:27;0.12;68.63
64918;HTU21D;52176;44.858;38.372;2023-02-24T17:46:53;0.08;68.65
64918;HTU21D;52176;44.858;38.372;2023-02-24T17:49:19;0.04;68.71
64918;HTU21D;52176;44.858;38.372;2023-02-24T17:51:45;-0.00;68.78
64918;HTU21D;52176;44.858;38.372;2023-02-24T17:54:11;-0.07;68.91
64918;HTU21D;52176;44.858;38.372;2023-02-24T17:56:37;-0.10;69.03
64918;HTU21D;52176;44.858;38.372;2023-02-24T17:59:04;-0.10;69.15
64918;HTU21D;52176;44.858;38.372;2023-02-24T18:01:30;-0.08;69.18
64918;HTU21D;52176;44.858;38.372;2023-02-24T18:03:56;-0.07;69.17